sensor_id;sensor_type;location;lat;lon;timestamp;pressure;altitude;pressure_sealevel;temperature;humidity
24045;BME280;26257;49.442;8.422;2023-05-13T00:01:22;100549.00;;;16.97;100.00
24045;BME280;26257;49.442;8.422;2023-05-13T00:03:48;100550.00;;;16.88;100.00
24045;BME280;26257;49.442;8.422;2023-05-13T00:06:13;100544.75;;;16.84;100.00
24045;BME280;26257;49.442;8.422;2023-05-13T00:08:39;100547.47;;;16.81;100.00
24045;BME280;26257;49.442;8.422;2023-05-13T00:11:04;100539.44;;;16.81;100.00
24045;BME280;26257;49.442;8.422;2023-05-13T00:13:30;100538.63;;;16.76;100.00
24045;BME280;26257;49.442;8.422;2023-05-13T00:15:55;100545.88;;;16.64;100.00
24045;BME280;26257;49.442;8.422;2023-05-13T00:18:21;100542.47;;;16.53;100.00
24045;BME280;26257;49.442;8.422;2023-05-13T00:20:46;100534.47;;;16.52;100.00
24045;BME280;26257;49.442;8.422;2023-05-13T00:23:11;100533.63;;;16.50;100.00
24045;BME280;26257;49.442;8.422;2023-05-13T00:25:37;100539.09;;;16.36;100.00
24045;BME280;26257;49.442;8.422;2023-05-13T00:28:04;100546.19;;;16.37;100.00
24045;BME280;26257;49.442;8.422;2023-05-13T00:30:30;100546.38;;;16.22;100.00
24045;BME280;26257;49.442;8.422;2023-05-13T00:32:55;100535.91;;;16.04;100.00
24045;BME280;26257;49.442;8.422;2023-05-13T00:35:21;100547.50;;;15.98;100.00
24045;BME280;26257;49.442;8.422;2023-05-13T00:37:46;100545.97;;;15.76;100.00
24045;BME280;26257;49.442;8.422;2023-05-13T00:40:20;100554.13;;;15.57;100.00
24045;BME280;26257;49.442;8.422;2023-05-13T00:42:46;100555.91;;;15.61;100.00
24045;BME280;26257;49.442;8.422;2023-05-13T00:45:11;100548.75;;;15.66;100.00
24045;BME280;26257;49.442;8.422;2023-05-13T00:47:38;100556.00;;;15.42;100.00
24045;BME280;26257;49.442;8.422;2023-05-13T00:50:05;100557.78;;;15.47;100.00
24045;BME280;26257;49.442;8.422;2023-05-13T00:52:31;100550.59;;;15.55;100.00
24045;BME280;26257;49.442;8.422;2023-05-13T00:54:58;100554.19;;;15.54;100.00
24045;BME280;26257;49.442;8.422;2023-05-13T00:57:24;100550.66;;;15.50;100.00
24045;BME280;26257;49.442;8.422;2023-05-13T00:59:50;100554.38;;;15.23;100.00
24045;BME280;26257;49.442;8.422;2023-05-13T01:02:33;100544.66;;;15.19;100.00
24045;BME280;26257;49.442;8.422;2023-05-13T01:05:28;100558.03;;;15.09;100.00
24045;BME280;26257;49.442;8.422;2023-05-13T01:08:16;100558.03;;;15.07;100.00
24045;BME280;26257;49.442;8.422;2023-05-13T01:10:58;100560.63;;;15.16;100.00
24045;BME280;26257;49.442;8.422;2023-05-13T01:13:32;100563.31;;;15.16;100.00
24045;BME280;26257;49.442;8.422;2023-05-13T01:16:36;100555.34;;;15.12;100.00
24045;BME280;26257;49.442;8.422;2023-05-13T01:22:14;100559.91;;;14.93;100.00
24045;BME280;26257;49.442;8.422;2023-05-13T01:24:44;100554.63;;;14.87;100.00
24045;BME280;26257;49.442;8.422;2023-05-13T01:27:14;100563.47;;;14.86;100.00
24045;BME280;26257;49.442;8.422;2023-05-13T01:29:44;100567.06;;;14.79;100.00
24045;BME280;26257;49.442;8.422;2023-05-13T01:32:10;100555.53;;;14.78;100.00
24045;BME280;26257;49.442;8.422;2023-05-13T01:34:38;100554.72;;;14.66;100.00
24045;BME280;26257;49.442;8.422;2023-05-13T01:37:05;100560.97;;;14.59;100.00
24045;BME280;26257;49.442;8.422;2023-05-13T01:42:07;100566.28;;;14.56;100.00
24045;BME280;26257;49.442;8.422;2023-05-13T01:44:38;100569.84;;;14.53;100.00
24045;BME280;26257;49.442;8.422;2023-05-13T01:47:25;100568.97;;;14.53;100.00
24045;BME280;26257;49.442;8.422;2023-05-13T01:49:54;100562.75;;;14.58;100.00
24045;BME280;26257;49.442;8.422;2023-05-13T01:52:23;100573.31;;;14.72;100.00
24045;BME280;26257;49.442;8.422;2023-05-13T01:54:52;100570.72;;;14.60;100.00
24045;BME280;26257;49.442;8.422;2023-05-13T01:57:18;100564.47;;;14.73;100.00
24045;BME280;26257;49.442;8.422;2023-05-13T01:59:47;100561.81;;;14.73;100.00
24045;BME280;26257;49.442;8.422;2023-05-13T02:02:13;100565.25;;;14.87;100.00
24045;BME280;26257;49.442;8.422;2023-05-13T02:04:41;100561.84;;;14.62;100.00
24045;BME280;26257;49.442;8.422;2023-05-13T02:07:08;100562.66;;;14.73;100.00
24045;BME280;26257;49.442;8.422;2023-05-13T02:09:34;100561.75;;;14.80;100.00
24045;BME280;26257;49.442;8.422;2023-05-13T02:12:00;100564.56;;;14.43;100.00
24045;BME280;26257;49.442;8.422;2023-05-13T02:14:26;100571.53;;;14.68;100.00
24045;BME280;26257;49.442;8.422;2023-05-13T02:16:51;100572.47;;;14.67;100.00
24045;BME280;26257;49.442;8.422;2023-05-13T02:19:19;100571.50;;;14.81;100.00
24045;BME280;26257;49.442;8.422;2023-05-13T02:21:45;100578.56;;;14.81;100.00
24045;BME280;26257;49.442;8.422;2023-05-13T02:24:13;100583.91;;;14.79;100.00
24045;BME280;26257;49.442;8.422;2023-05-13T02:26:40;100573.19;;;14.92;100.00
24045;BME280;26257;49.442;8.422;2023-05-13T02:29:32;100579.41;;;14.89;100.00
24045;BME280;26257;49.442;8.422;2023-05-13T02:32:00;100583.88;;;14.87;100.00
24045;BME280;26257;49.442;8.422;2023-05-13T02:34:30;100577.66;;;14.91;100.00
24045;BME280;26257;49.442;8.422;2023-05-13T02:36:58;100579.41;;;14.92;100.00
24045;BME280;26257;49.442;8.422;2023-05-13T02:39:33;100579.56;;;14.62;100.00
24045;BME280;26257;49.442;8.422;2023-05-13T02:42:05;100574.25;;;14.59;100.00
24045;BME280;26257;49.442;8.422;2023-05-13T02:44:35;100572.44;;;14.73;100.00
24045;BME280;26257;49.442;8.422;2023-05-13T02:47:07;100576.84;;;14.77;100.00
24045;BME280;26257;49.442;8.422;2023-05-13T02:49:34;100570.66;;;14.72;100.00
24045;BME280;26257;49.442;8.422;2023-05-13T02:51:59;100576.09;;;14.30;100.00
24045;BME280;26257;49.442;8.422;2023-05-13T02:54:25;100577.03;;;14.12;100.00
24045;BME280;26257;49.442;8.422;2023-05-13T02:56:50;100583.25;;;14.15;100.00
24045;BME280;26257;49.442;8.422;2023-05-13T02:59:16;100579.69;;;14.13;100.00
24045;BME280;26257;49.442;8.422;2023-05-13T03:01:42;100573.50;;;14.13;100.00
24045;BME280;26257;49.442;8.422;2023-05-13T03:04:07;100578.84;;;14.02;100.00
24045;BME280;26257;49.442;8.422;2023-05-13T03:06:33;100576.19;;;13.99;100.00
24045;BME280;26257;49.442;8.422;2023-05-13T03:09:00;100577.97;;;13.94;100.00
24045;BME280;26257;49.442;8.422;2023-05-13T03:11:27;100577.97;;;13.94;100.00
24045;BME280;26257;49.442;8.422;2023-05-13T03:13:52;100585.09;;;13.60;100.00
24045;BME280;26257;49.442;8.422;2023-05-13T03:16:18;100586.84;;;13.72;100.00
24045;BME280;26257;49.442;8.422;2023-05-13T03:18:45;100585.97;;;13.70;100.00
24045;BME280;26257;49.442;8.422;2023-05-13T03:21:10;100583.31;;;13.70;100.00
24045;BME280;26257;49.442;8.422;2023-05-13T03:23:39;100585.09;;;13.53;100.00
24045;BME280;26257;49.442;8.422;2023-05-13T03:26:09;100591.28;;;13.55;100.00
24045;BME280;26257;49.442;8.422;2023-05-13T03:28:35;100592.16;;;13.65;100.00
24045;BME280;26257;49.442;8.422;2023-05-13T03:31:02;100593.03;;;13.65;100.00
24045;BME280;26257;49.442;8.422;2023-05-13T03:33:27;100595.69;;;13.56;100.00
24045;BME280;26257;49.442;8.422;2023-05-13T03:35:54;100593.03;;;13.77;100.00
24045;BME280;26257;49.442;8.422;2023-05-13T03:38:21;100599.22;;;13.81;100.00
24045;BME280;26257;49.442;8.422;2023-05-13T03:40:46;100582.41;;;13.89;100.00
24045;BME280;26257;49.442;8.422;2023-05-13T03:43:14;100587.72;;;13.83;100.00
24045;BME280;26257;49.442;8.422;2023-05-13T03:45:39;100587.72;;;13.83;100.00
24045;BME280;26257;49.442;8.422;2023-05-13T03:48:07;100602.75;;;13.69;100.00
24045;BME280;26257;49.442;8.422;2023-05-13T03:50:35;100595.69;;;13.74;100.00
24045;BME280;26257;49.442;8.422;2023-05-13T03:53:02;100604.56;;;13.76;100.00
24045;BME280;26257;49.442;8.422;2023-05-13T03:55:28;100606.31;;;13.80;100.00
24045;BME280;26257;49.442;8.422;2023-05-13T03:57:53;100616.94;;;13.47;100.00
24045;BME280;26257;49.442;8.422;2023-05-13T04:00:19;100616.91;;;13.21;100.00
24045;BME280;26257;49.442;8.422;2023-05-13T04:02:45;100613.38;;;13.43;100.00
24045;BME280;26257;49.442;8.422;2023-05-13T04:05:10;100623.97;;;13.48;100.00
24045;BME280;26257;49.442;8.422;2023-05-13T04:07:37;100614.25;;;13.29;100.00
24045;BME280;26257;49.442;8.422;2023-05-13T04:10:06;100617.78;;;13.19;100.00
24045;BME280;26257;49.442;8.422;2023-05-13T04:12:34;100622.22;;;13.44;100.00
24045;BME280;26257;49.442;8.422;2023-05-13T04:14:59;100627.50;;;13.29;100.00
24045;BME280;26257;49.442;8.422;2023-05-13T04:17:25;100624.88;;;13.45;100.00
24045;BME280;26257;49.442;8.422;2023-05-13T04:19:54;100627.53;;;13.32;100.00
24045;BME280;26257;49.442;8.422;2023-05-13T04:22:20;100629.31;;;13.45;100.00
24045;BME280;26257;49.442;8.422;2023-05-13T04:24:46;100618.69;;;13.39;100.00
24045;BME280;26257;49.442;8.422;2023-05-13T04:27:20;100624.84;;;13.23;100.00
24045;BME280;26257;49.442;8.422;2023-05-13T04:29:46;100625.75;;;13.37;100.00
24045;BME280;26257;49.442;8.422;2023-05-13T04:32:11;100626.63;;;13.43;100.00
24045;BME280;26257;49.442;8.422;2023-05-13T04:34:46;100620.44;;;13.38;100.00
24045;BME280;26257;49.442;8.422;2023-05-13T04:37:12;100632.81;;;13.45;100.00
24045;BME280;26257;49.442;8.422;2023-05-13T04:39:37;100632.00;;;13.81;100.00
24045;BME280;26257;49.442;8.422;2023-05-13T04:42:03;100632.88;;;13.82;100.00
24045;BME280;26257;49.442;8.422;2023-05-13T04:44:32;100636.41;;;13.97;100.00
24045;BME280;26257;49.442;8.422;2023-05-13T04:46:59;100631.06;;;14.09;100.00
24045;BME280;26257;49.442;8.422;2023-05-13T04:49:26;100632.81;;;14.10;100.00
24045;BME280;26257;49.442;8.422;2023-05-13T04:51:52;100634.63;;;13.99;100.00
24045;BME280;26257;49.442;8.422;2023-05-13T04:54:18;100638.16;;;13.95;100.00
24045;BME280;26257;49.442;8.422;2023-05-13T04:56:44;100641.69;;;14.11;100.00
24045;BME280;26257;49.442;8.422;2023-05-13T04:59:11;100632.81;;;14.13;100.00
24045;BME280;26257;49.442;8.422;2023-05-13T05:01:37;100635.47;;;14.10;100.00
24045;BME280;26257;49.442;8.422;2023-05-13T05:04:02;100638.13;;;14.10;100.00
24045;BME280;26257;49.442;8.422;2023-05-13T05:06:28;100637.25;;;14.14;100.00
24045;BME280;26257;49.442;8.422;2023-05-13T05:08:53;100632.84;;;14.33;100.00
24045;BME280;26257;49.442;8.422;2023-05-13T05:11:19;100640.81;;;14.15;100.00
24045;BME280;26257;49.442;8.422;2023-05-13T05:13:45;100638.13;;;14.19;100.00
24045;BME280;26257;49.442;8.422;2023-05-13T05:16:12;100650.53;;;14.17;100.00
24045;BME280;26257;49.442;8.422;2023-05-13T05:18:37;100651.41;;;14.24;100.00
24045;BME280;26257;49.442;8.422;2023-05-13T05:21:05;100649.66;;;14.38;100.00
24045;BME280;26257;49.442;8.422;2023-05-13T05:23:33;100648.72;;;14.53;100.00
24045;BME280;26257;49.442;8.422;2023-05-13T05:26:02;100651.41;;;14.42;100.00
24045;BME280;26257;49.442;8.422;2023-05-13T05:28:29;100654.84;;;14.80;100.00
24045;BME280;26257;49.442;8.422;2023-05-13T05:30:54;100658.28;;;14.99;100.00
24045;BME280;26257;49.442;8.422;2023-05-13T05:33:22;100653.81;;;15.10;100.00
24045;BME280;26257;49.442;8.422;2023-05-13T05:35:49;100652.06;;;15.09;100.00
24045;BME280;26257;49.442;8.422;2023-05-13T05:38:17;100658.28;;;15.02;100.00
24045;BME280;26257;49.442;8.422;2023-05-13T05:40:44;100660.78;;;15.32;100.00
24045;BME280;26257;49.442;8.422;2023-05-13T05:43:13;100662.63;;;15.21;100.00
24045;BME280;26257;49.442;8.422;2023-05-13T05:45:44;100667.84;;;15.49;100.00
24045;BME280;26257;49.442;8.422;2023-05-13T05:48:13;100666.78;;;15.69;100.00
24045;BME280;26257;49.442;8.422;2023-05-13T05:50:46;100666.63;;;15.89;100.00
24045;BME280;26257;49.442;8.422;2023-05-13T05:53:11;100664.81;;;15.95;100.00
24045;BME280;26257;49.442;8.422;2023-05-13T05:55:37;100662.00;;;16.09;100.00
24045;BME280;26257;49.442;8.422;2023-05-13T05:58:02;100661.84;;;16.27;100.00
24045;BME280;26257;49.442;8.422;2023-05-13T06:00:29;100658.13;;;16.43;100.00
24045;BME280;26257;49.442;8.422;2023-05-13T06:02:55;100658.88;;;16.59;100.00
24045;BME280;26257;49.442;8.422;2023-05-13T06:05:23;100662.06;;;16.91;100.00
24045;BME280;26257;49.442;8.422;2023-05-13T06:07:49;100659.22;;;17.05;100.00
24045;BME280;26257;49.442;8.422;2023-05-13T06:10:14;100660.81;;;17.18;100.00
24045;BME280;26257;49.442;8.422;2023-05-13T06:12:40;100658.16;;;17.18;100.00
24045;BME280;26257;49.442;8.422;2023-05-13T06:15:07;100664.25;;;17.27;100.00
24045;BME280;26257;49.442;8.422;2023-05-13T06:17:37;100659.22;;;17.03;100.00
24045;BME280;26257;49.442;8.422;2023-05-13T06:20:03;100660.66;;;17.30;100.00
24045;BME280;26257;49.442;8.422;2023-05-13T06:22:30;100660.56;;;17.36;100.00
24045;BME280;26257;49.442;8.422;2023-05-13T06:24:56;100655.25;;;17.33;100.00
24045;BME280;26257;49.442;8.422;2023-05-13T06:27:23;100654.38;;;17.33;100.00
24045;BME280;26257;49.442;8.422;2023-05-13T06:29:48;100648.75;;;17.51;100.00
24045;BME280;26257;49.442;8.422;2023-05-13T06:32:16;100661.06;;;17.64;100.00
24045;BME280;26257;49.442;8.422;2023-05-13T06:34:43;100655.16;;;17.39;100.00
24045;BME280;26257;49.442;8.422;2023-05-13T06:37:13;100648.63;;;17.60;93.96
24045;BME280;26257;49.442;8.422;2023-05-13T06:39:39;100655.75;;;17.62;89.51
24045;BME280;26257;49.442;8.422;2023-05-13T06:42:05;100646.44;;;17.87;88.36
24045;BME280;26257;49.442;8.422;2023-05-13T06:44:33;100661.06;;;17.64;94.37
24045;BME280;26257;49.442;8.422;2023-05-13T06:46:59;100647.50;;;17.77;92.55
24045;BME280;26257;49.442;8.422;2023-05-13T06:49:27;100645.41;;;17.96;89.38
24045;BME280;26257;49.442;8.422;2023-05-13T06:51:53;100648.25;;;17.84;90.06
24045;BME280;26257;49.442;8.422;2023-05-13T06:54:19;100645.47;;;17.92;89.40
24045;BME280;26257;49.442;8.422;2023-05-13T06:56:45;100647.25;;;17.93;88.32
24045;BME280;26257;49.442;8.422;2023-05-13T06:59:11;100641.84;;;17.96;85.59
24045;BME280;26257;49.442;8.422;2023-05-13T07:01:38;100643.28;;;18.15;83.52
24045;BME280;26257;49.442;8.422;2023-05-13T07:04:03;100639.78;;;18.10;81.52
24045;BME280;26257;49.442;8.422;2023-05-13T07:06:30;100643.97;;;18.26;80.84
24045;BME280;26257;49.442;8.422;2023-05-13T07:08:57;100644.44;;;18.49;78.93
24045;BME280;26257;49.442;8.422;2023-05-13T07:11:23;100649.72;;;18.03;81.08
24045;BME280;26257;49.442;8.422;2023-05-13T07:13:49;100645.09;;;18.13;80.33
24045;BME280;26257;49.442;8.422;2023-05-13T07:16:17;100652.00;;;18.26;80.28
24045;BME280;26257;49.442;8.422;2023-05-13T07:18:44;100645.28;;;18.53;80.82
24045;BME280;26257;49.442;8.422;2023-05-13T07:21:36;100646.88;;;18.63;81.92
24045;BME280;26257;49.442;8.422;2023-05-13T07:24:26;100645.88;;;18.68;81.77
24045;BME280;26257;49.442;8.422;2023-05-13T07:27:00;100638.69;;;18.70;79.02
24045;BME280;26257;49.442;8.422;2023-05-13T07:29:41;100643.88;;;18.79;74.45
24045;BME280;26257;49.442;8.422;2023-05-13T07:32:34;100641.91;;;18.87;74.47
24045;BME280;26257;49.442;8.422;2023-05-13T07:35:09;100645.03;;;18.65;73.49
24045;BME280;26257;49.442;8.422;2023-05-13T07:38:05;100643.91;;;18.76;72.70
24045;BME280;26257;49.442;8.422;2023-05-13T07:40:43;100645.50;;;18.86;73.69
24045;BME280;26257;49.442;8.422;2023-05-13T07:43:27;100641.47;;;18.66;75.38
24045;BME280;26257;49.442;8.422;2023-05-13T07:45:53;100647.66;;;18.69;78.36
24045;BME280;26257;49.442;8.422;2023-05-13T07:48:23;100639.94;;;18.53;78.22
24045;BME280;26257;49.442;8.422;2023-05-13T07:51:20;100640.47;;;18.71;81.19
24045;BME280;26257;49.442;8.422;2023-05-13T07:54:15;100642.25;;;19.12;74.21
24045;BME280;26257;49.442;8.422;2023-05-13T07:56:51;100639.16;;;19.32;71.24
24045;BME280;26257;49.442;8.422;2023-05-13T07:59:18;100642.56;;;19.40;70.43
24045;BME280;26257;49.442;8.422;2023-05-13T08:01:50;100650.00;;;19.24;74.15
24045;BME280;26257;49.442;8.422;2023-05-13T08:04:16;100645.75;;;19.16;77.34
24045;BME280;26257;49.442;8.422;2023-05-13T08:06:52;100643.50;;;19.39;73.26
24045;BME280;26257;49.442;8.422;2023-05-13T08:09:22;100628.69;;;19.96;68.58
24045;BME280;26257;49.442;8.422;2023-05-13T08:11:50;100628.97;;;20.19;65.73
24045;BME280;26257;49.442;8.422;2023-05-13T08:14:20;100633.94;;;20.36;63.49
24045;BME280;26257;49.442;8.422;2023-05-13T08:16:47;100634.97;;;20.30;63.02
24045;BME280;26257;49.442;8.422;2023-05-13T08:19:14;100628.38;;;20.73;62.45
24045;BME280;26257;49.442;8.422;2023-05-13T08:21:41;100627.78;;;20.63;63.42
24045;BME280;26257;49.442;8.422;2023-05-13T08:24:08;100627.91;;;20.26;66.04
24045;BME280;26257;49.442;8.422;2023-05-13T08:26:37;100626.81;;;20.66;60.71
24045;BME280;26257;49.442;8.422;2023-05-13T08:29:06;100617.19;;;20.26;60.98
24045;BME280;26257;49.442;8.422;2023-05-13T08:31:42;100620.19;;;20.47;60.66
24045;BME280;26257;49.442;8.422;2023-05-13T08:54:19;100626.38;;;20.81;66.61
24045;BME280;26257;49.442;8.422;2023-05-13T08:56:48;100610.56;;;21.30;65.11
24045;BME280;26257;49.442;8.422;2023-05-13T08:59:37;100606.56;;;21.71;65.19
24045;BME280;26257;49.442;8.422;2023-05-13T09:02:15;100613.88;;;21.11;64.75
24045;BME280;26257;49.442;8.422;2023-05-13T09:04:42;100617.63;;;21.34;58.12
24045;BME280;26257;49.442;8.422;2023-05-13T09:07:08;100621.22;;;21.33;57.65
24045;BME280;26257;49.442;8.422;2023-05-13T09:09:34;100617.72;;;21.31;60.50
24045;BME280;26257;49.442;8.422;2023-05-13T09:12:05;100613.00;;;21.38;61.99
24045;BME280;26257;49.442;8.422;2023-05-13T09:14:33;100619.75;;;21.23;62.66
24045;BME280;26257;49.442;8.422;2023-05-13T09:17:15;100620.06;;;21.14;57.89
24045;BME280;26257;49.442;8.422;2023-05-13T09:20:09;100613.53;;;22.04;56.27
24045;BME280;26257;49.442;8.422;2023-05-13T09:25:34;100612.91;;;21.13;58.39
24045;BME280;26257;49.442;8.422;2023-05-13T09:28:08;100607.94;;;21.29;59.86
24045;BME280;26257;49.442;8.422;2023-05-13T09:30:55;100595.13;;;21.65;53.55
24045;BME280;26257;49.442;8.422;2023-05-13T09:33:29;100597.97;;;21.60;53.98
24045;BME280;26257;49.442;8.422;2023-05-13T09:35:58;100597.84;;;22.17;52.79
24045;BME280;26257;49.442;8.422;2023-05-13T09:38:47;100594.66;;;22.31;55.46
24045;BME280;26257;49.442;8.422;2023-05-13T09:41:25;100602.81;;;22.79;55.39
24045;BME280;26257;49.442;8.422;2023-05-13T09:43:53;100595.03;;;22.45;51.41
24045;BME280;26257;49.442;8.422;2023-05-13T09:46:19;100593.44;;;22.65;52.43
24045;BME280;26257;49.442;8.422;2023-05-13T09:48:46;100587.00;;;22.93;51.58
24045;BME280;26257;49.442;8.422;2023-05-13T09:51:14;100587.66;;;23.44;48.92
24045;BME280;26257;49.442;8.422;2023-05-13T09:53:40;100591.66;;;23.11;49.41
24045;BME280;26257;49.442;8.422;2023-05-13T09:56:08;100582.53;;;23.15;49.49
24045;BME280;26257;49.442;8.422;2023-05-13T09:58:34;100586.28;;;23.11;48.62
24045;BME280;26257;49.442;8.422;2023-05-13T10:01:00;100586.44;;;23.29;47.39
24045;BME280;26257;49.442;8.422;2023-05-13T10:03:27;100588.38;;;23.91;46.79
24045;BME280;26257;49.442;8.422;2023-05-13T10:05:53;100586.38;;;23.54;45.67
24045;BME280;26257;49.442;8.422;2023-05-13T10:08:20;100581.69;;;23.79;45.32
24045;BME280;26257;49.442;8.422;2023-05-13T10:10:47;100577.19;;;24.22;45.68
24045;BME280;26257;49.442;8.422;2023-05-13T10:13:15;100577.00;;;24.05;46.60
24045;BME280;26257;49.442;8.422;2023-05-13T10:18:11;100569.44;;;25.31;42.82
24045;BME280;26257;49.442;8.422;2023-05-13T10:20:40;100562.22;;;25.67;41.94
24045;BME280;26257;49.442;8.422;2023-05-13T10:23:06;100562.69;;;25.94;40.91
24045;BME280;26257;49.442;8.422;2023-05-13T10:25:31;100566.28;;;26.46;39.13
24045;BME280;26257;49.442;8.422;2023-05-13T10:27:57;100560.94;;;27.10;40.52
24045;BME280;26257;49.442;8.422;2023-05-13T10:30:24;100562.41;;;26.67;37.72
24045;BME280;26257;49.442;8.422;2023-05-13T10:32:51;100545.63;;;28.01;33.92
24045;BME280;26257;49.442;8.422;2023-05-13T10:35:19;100551.25;;;27.21;35.68
24045;BME280;26257;49.442;8.422;2023-05-13T10:37:59;100546.94;;;28.39;34.89
24045;BME280;26257;49.442;8.422;2023-05-13T10:43:21;100556.72;;;26.71;36.69
24045;BME280;26257;49.442;8.422;2023-05-13T10:45:54;100546.91;;;27.80;34.34
24045;BME280;26257;49.442;8.422;2023-05-13T10:48:21;100548.56;;;25.87;37.72
24045;BME280;26257;49.442;8.422;2023-05-13T10:53:34;100547.63;;;27.68;36.69
24045;BME280;26257;49.442;8.422;2023-05-13T10:56:01;100544.63;;;28.90;34.73
24045;BME280;26257;49.442;8.422;2023-05-13T10:58:34;100544.16;;;28.83;34.23
24045;BME280;26257;49.442;8.422;2023-05-13T11:01:38;100554.91;;;26.72;36.14
24045;BME280;26257;49.442;8.422;2023-05-13T11:04:14;100551.72;;;26.64;36.43
24045;BME280;26257;49.442;8.422;2023-05-13T11:06:41;100539.41;;;27.38;35.85
24045;BME280;26257;49.442;8.422;2023-05-13T11:09:11;100534.91;;;27.84;36.93
24045;BME280;26257;49.442;8.422;2023-05-13T11:11:38;100531.19;;;27.71;36.73
24045;BME280;26257;49.442;8.422;2023-05-13T11:19:20;100531.94;;;28.18;33.63
24045;BME280;26257;49.442;8.422;2023-05-13T11:21:49;100522.97;;;29.70;32.97
24045;BME280;26257;49.442;8.422;2023-05-13T11:24:16;100534.50;;;29.20;33.17
24045;BME280;26257;49.442;8.422;2023-05-13T11:29:08;100528.94;;;27.47;34.54
24045;BME280;26257;49.442;8.422;2023-05-13T11:31:47;100540.72;;;26.67;35.93
24045;BME280;26257;49.442;8.422;2023-05-13T11:34:14;100537.28;;;25.96;37.31
24045;BME280;26257;49.442;8.422;2023-05-13T11:36:45;100538.25;;;26.79;35.23
24045;BME280;26257;49.442;8.422;2023-05-13T11:39:17;100524.13;;;28.56;34.94
24045;BME280;26257;49.442;8.422;2023-05-13T11:41:45;100529.97;;;29.06;33.84
24045;BME280;26257;49.442;8.422;2023-05-13T11:44:14;100521.25;;;28.29;35.61
24045;BME280;26257;49.442;8.422;2023-05-13T11:46:59;100518.59;;;27.07;36.45
24045;BME280;26257;49.442;8.422;2023-05-13T11:49:32;100529.00;;;26.16;40.10
24045;BME280;26257;49.442;8.422;2023-05-13T11:52:10;100531.69;;;25.65;39.68
24045;BME280;26257;49.442;8.422;2023-05-13T11:54:51;100539.59;;;25.13;40.86
24045;BME280;26257;49.442;8.422;2023-05-13T11:57:24;100545.22;;;23.91;44.24
24045;BME280;26257;49.442;8.422;2023-05-13T12:00:03;100553.28;;;24.72;45.86
24045;BME280;26257;49.442;8.422;2023-05-13T12:02:39;100544.66;;;24.45;51.78
24045;BME280;26257;49.442;8.422;2023-05-13T12:05:09;100551.69;;;24.29;50.91
24045;BME280;26257;49.442;8.422;2023-05-13T12:07:36;100548.66;;;23.94;48.37
24045;BME280;26257;49.442;8.422;2023-05-13T12:10:03;100546.53;;;23.39;53.50
24045;BME280;26257;49.442;8.422;2023-05-13T12:12:30;100546.81;;;23.31;55.67
24045;BME280;26257;49.442;8.422;2023-05-13T12:15:05;100548.63;;;23.31;57.85
24045;BME280;26257;49.442;8.422;2023-05-13T12:17:31;100551.91;;;23.39;54.85
24045;BME280;26257;49.442;8.422;2023-05-13T12:20:17;100546.66;;;23.13;57.99
24045;BME280;26257;49.442;8.422;2023-05-13T12:28:24;100556.44;;;21.42;70.21
24045;BME280;26257;49.442;8.422;2023-05-13T12:31:02;100554.03;;;21.33;75.22
24045;BME280;26257;49.442;8.422;2023-05-13T12:33:30;100559.53;;;21.57;77.33
24045;BME280;26257;49.442;8.422;2023-05-13T12:39:06;100558.84;;;23.23;64.51
24045;BME280;26257;49.442;8.422;2023-05-13T12:41:38;100547.88;;;25.48;56.38
24045;BME280;26257;49.442;8.422;2023-05-13T12:44:08;100535.03;;;27.04;48.18
24045;BME280;26257;49.442;8.422;2023-05-13T12:46:33;100538.28;;;27.26;43.97
24045;BME280;26257;49.442;8.422;2023-05-13T12:49:03;100541.69;;;26.66;45.89
24045;BME280;26257;49.442;8.422;2023-05-13T12:51:29;100543.00;;;25.73;47.30
24045;BME280;26257;49.442;8.422;2023-05-13T12:53:55;100547.66;;;25.34;47.53
24045;BME280;26257;49.442;8.422;2023-05-13T12:56:22;100544.28;;;25.29;49.26
24045;BME280;26257;49.442;8.422;2023-05-13T12:58:49;100558.47;;;25.15;49.23
24045;BME280;26257;49.442;8.422;2023-05-13T13:01:15;100543.69;;;25.41;46.44
24045;BME280;26257;49.442;8.422;2023-05-13T13:03:41;100538.28;;;24.66;47.32
24045;BME280;26257;49.442;8.422;2023-05-13T13:06:07;100541.38;;;23.96;48.58
24045;BME280;26257;49.442;8.422;2023-05-13T13:08:34;100541.09;;;24.24;48.60
24045;BME280;26257;49.442;8.422;2023-05-13T13:11:00;100532.91;;;25.03;49.00
24045;BME280;26257;49.442;8.422;2023-05-13T13:13:25;100526.00;;;25.34;48.50
24045;BME280;26257;49.442;8.422;2023-05-13T13:15:51;100530.16;;;26.11;45.84
24045;BME280;26257;49.442;8.422;2023-05-13T13:18:17;100529.59;;;26.38;46.68
24045;BME280;26257;49.442;8.422;2023-05-13T13:20:42;100534.25;;;25.85;49.06
24045;BME280;26257;49.442;8.422;2023-05-13T13:23:08;100528.25;;;25.78;45.02
24045;BME280;26257;49.442;8.422;2023-05-13T13:25:34;100534.44;;;25.45;47.78
24045;BME280;26257;49.442;8.422;2023-05-13T13:28:01;100526.44;;;25.25;46.77
24045;BME280;26257;49.442;8.422;2023-05-13T13:30:26;100521.50;;;25.70;45.07
24045;BME280;26257;49.442;8.422;2023-05-13T13:32:51;100518.53;;;27.24;40.91
24045;BME280;26257;49.442;8.422;2023-05-13T13:35:17;100504.97;;;29.00;38.75
24045;BME280;26257;49.442;8.422;2023-05-13T13:37:42;100504.44;;;28.81;39.77
24045;BME280;26257;49.442;8.422;2023-05-13T13:40:08;100501.31;;;29.42;35.78
24045;BME280;26257;49.442;8.422;2023-05-13T13:42:34;100487.59;;;30.72;33.70
24045;BME280;26257;49.442;8.422;2023-05-13T13:44:59;100490.97;;;29.73;35.07
24045;BME280;26257;49.442;8.422;2023-05-13T13:47:26;100490.78;;;29.76;34.98
24045;BME280;26257;49.442;8.422;2023-05-13T13:49:51;100497.41;;;27.29;34.71